Weather at Kimbrel Farm Airport

Public forecast

Using degrees Fahrenheit for public forecast. Weather courtesy of forecast.io.

Closest aviation weather report (METAR) to Kimbrel Farm Airport

Closest report is Chehalis Centralia Airport, 15.1 nm (27.9 km) ESE.

2024/07/24 06:15 (retrieved 10 minutes ago)

KCLS 240615Z AUTO 23005KT 10SM CLR 15/11 A3011 RMK AO2

Closest aviation forecast (TAF) to Kimbrel Farm Airport

Closest forecast is Olympia Regional Airport, 19.9 nm (36.8 km) ENE.

2024/07/24 06:51 (retrieved 0 seconds ago)

TAF KOLM 240549Z 2406/2506 VRB02KT P6SM SKC FM242200 26008KT P6SM BKN100